Dixonville, Canada
Current Conditions -  °F | °C
As of 9:00 PM on Wednesday 22 Oct 2014 (Local Time) from CYPE Reporting Station
Few Clouds Few Clouds  
Wind Chill: 32°   Ceiling: Unl
Heat Index: 36°   Visibility: 15mi
Dew Point: 30°   Wind: 5mph
Humidity: 81%   Direction: 260°W
Pressure: 29.53"   Gusts: NA
Location:  56.53°N, 117.67°W
Report Text: CYPE 230300Z 26004KT 15SM FEW250 02/M01 A2953 RMK CI1 SLP022
Loading
Personal Weather Stations






























Interactive Weather Map
Tropical Storm Tracking
New forecast layout! Learn more

10-Day Weather Forecast

Advertisements
Track Severe Weather on mobile